In Rescue
 
Open Full Screen Window  High Contrast Mode
Wind Gusting 00 knots
05
May 13, 2021 11:24 AM CDT
Weather Information
Wind Direction
  150 °
Wind Speed
  05 kt (6 mph)
Wind Gust
  00 kt (0 mph)
Altimeter
30.37 in
Visibility
10 SM
Temperature
17° C
63° F
Dewpoint
-03° C
27° F
Humidity
25%
1hr Rain Fall
00.00 in.
24hr Rain Fall
00.00 in.
Sky Condition
Clear
VFR

METAR K9MN 131624Z AUTO 15005KT 10SM CLR 17/M03 A3037 RMK AO1 T01741035

FAA Disclaimer: The data displayed is for advisory purposes only and is not to be used for flight planning or operations.